»·PEaware :: N3452E KPHX-KTUS

N3452E :: KPHX-KTUS

FLIGHT INFORMATION

Flight Status: Arrived
Operator: Privately registered:
United States
More flights under this callsign
Pilot: John C. (27555)
Aircraft: CESSNA 182 SKYLANE
(C182)
More flights by this aircraft type
Origin: KPHX Phoenix Sky Harbor Intl
United States
Destination: KTUS Tucson Intl
United States
More flights between these airports :: More routes between these airports
Route: +
File this flight plan on PilotEdge
Remarks:
Altitude:
(Current/Filed)
7,500ft
Speed:
(Current/Filed)
0kts
Departed: 21-Aug-20 07:53 PM
Arrived: 21-Aug-20 08:33 PM
Distance/Time
Traveled:
95nm/0:39
Distance/Time
To Go:
Arrived

Flight Plot

Page will automatically refresh every two minutes.

Flight plan parsing failed; only flown route is shown


Map Options




Map Legend


Flown Route
Filed Route
Departure Airport
Arrival Airport
Navaid (VOR, NDB)
Fix

Horizontal Profiles

Position Reports

Time Latitude Longitude Heading Altitude Ground
Speed
21-Aug-20 19:42 33.442621 -112.024515 192 1140ft 0kts
21-Aug-20 19:43 33.442621 -112.024515 192 1140ft 0kts
21-Aug-20 19:44 33.442053 -112.023622 107 1140ft 10kts
21-Aug-20 19:45 33.441974 -112.018836 89 1140ft 17kts
21-Aug-20 19:46 33.441957 -112.012469 90 1140ft 20kts
21-Aug-20 19:47 33.441974 -112.006947 89 1140ft 24kts
21-Aug-20 19:48 33.442008 -111.998731 93 1140ft 23kts
21-Aug-20 19:49 33.441837 -111.992491 130 1140ft 0kts
21-Aug-20 19:50 33.441837 -111.992491 130 1140ft 0kts
21-Aug-20 19:51 33.441716 -111.992373 153 1140ft 9kts
21-Aug-20 19:52 33.440910 -112.004196 269 1262ft 84kts
21-Aug-20 19:53 33.428921 -112.024546 175 2302ft 96kts
21-Aug-20 19:54 33.404754 -112.008455 155 3352ft 104kts
21-Aug-20 19:55 33.379034 -111.990525 155 4362ft 110kts
21-Aug-20 19:56 33.353238 -111.972731 155 5457ft 105kts
21-Aug-20 19:57 33.328353 -111.955594 155 6555ft 101kts
21-Aug-20 19:58 33.302934 -111.936618 148 7438ft 122kts
21-Aug-20 19:59 33.268582 -111.907523 145 7469ft 170kts
21-Aug-20 20:00 33.228824 -111.873587 144 7471ft 178kts
21-Aug-20 20:01 33.188262 -111.839048 144 7472ft 179kts
21-Aug-20 20:02 33.148051 -111.804866 144 7476ft 174kts
21-Aug-20 20:03 33.109000 -111.771715 144 7508ft 171kts
21-Aug-20 20:04 33.069971 -111.738676 144 7516ft 172kts
21-Aug-20 20:05 33.030817 -111.705526 143 7546ft 172kts
21-Aug-20 20:06 32.991738 -111.672466 142 7552ft 171kts
21-Aug-20 20:07 32.953024 -111.639743 141 7555ft 169kts
21-Aug-20 20:08 32.914692 -111.607371 141 7555ft 168kts
21-Aug-20 20:09 32.876277 -111.574971 141 7554ft 168kts
21-Aug-20 20:10 32.838195 -111.542896 141 7558ft 168kts
21-Aug-20 20:11 32.800004 -111.510763 141 7563ft 167kts
21-Aug-20 20:12 32.761396 -111.478318 142 7422ft 172kts
21-Aug-20 20:13 32.723327 -111.446360 142 7424ft 168kts
21-Aug-20 20:14 32.685384 -111.414541 142 7428ft 167kts
21-Aug-20 20:15 32.647871 -111.383115 142 7432ft 167kts
21-Aug-20 20:16 32.610204 -111.351595 142 7435ft 167kts
21-Aug-20 20:17 32.572153 -111.319789 142 7436ft 167kts
21-Aug-20 20:18 32.544152 -111.296378 142 7436ft 167kts
21-Aug-20 20:19 32.498920 -111.258629 142 7436ft 167kts
21-Aug-20 20:20 32.460926 -111.226951 142 7436ft 167kts
21-Aug-20 20:21 32.422835 -111.195348 143 7436ft 167kts
21-Aug-20 20:22 32.384773 -111.163825 143 7436ft 167kts
21-Aug-20 20:23 32.348134 -111.133507 142 7356ft 157kts
21-Aug-20 20:24 32.317118 -111.096841 120 6933ft 163kts
21-Aug-20 20:25 32.292797 -111.050792 119 6333ft 164kts
21-Aug-20 20:26 32.269110 -111.005589 119 5733ft 161kts
21-Aug-20 20:27 32.244166 -110.962988 131 5126ft 150kts
21-Aug-20 20:28 32.213533 -110.934368 141 4541ft 132kts
21-Aug-20 20:29 32.184549 -110.910154 160 4144ft 117kts
21-Aug-20 20:30 32.157061 -110.918943 211 3759ft 95kts
21-Aug-20 20:31 32.136217 -110.936626 230 2883ft 88kts
21-Aug-20 20:32 32.126307 -110.948405 247 2649ft 21kts
21-Aug-20 20:33 32.126814 -110.949543 312 2649ft 0kts
21-Aug-20 20:34 32.126814 -110.949543 312 2649ft 0kts

Navigation Log

Ident Type
Flight plan parsing failed, navigation log unavailable